createdAt,value
2018-04-20T00:00:00.284Z,0
2018-04-20T00:01:00.558Z,0
2018-04-20T00:02:00.332Z,0
2018-04-20T00:03:00.371Z,0
2018-04-20T00:04:00.364Z,0
2018-04-20T00:05:00.638Z,0
2018-04-20T00:06:00.671Z,0
2018-04-20T00:07:00.439Z,0
2018-04-20T00:08:00.715Z,0
2018-04-20T00:09:00.739Z,0
2018-04-20T00:10:00.530Z,0
2018-04-20T00:11:00.532Z,0
2018-04-20T00:12:00.720Z,0
2018-04-20T00:13:00.337Z,0
2018-04-20T00:14:00.617Z,0
2018-04-20T00:15:00.907Z,0
2018-04-20T00:16:00.665Z,0
2018-04-20T00:17:00.688Z,0
2018-04-20T00:18:00.974Z,0
2018-04-20T00:19:00.735Z,0
2018-04-20T00:20:00.521Z,0
2018-04-20T00:21:00.761Z,0
2018-04-20T00:22:01.030Z,0
2018-04-20T00:23:00.799Z,0
2018-04-20T00:24:01.080Z,0
2018-04-20T00:25:01.105Z,0
2018-04-20T00:26:01.134Z,0
2018-04-20T00:27:01.216Z,0
2018-04-20T00:28:00.673Z,0
2018-04-20T00:29:01.201Z,0
2018-04-20T00:30:00.993Z,0
2018-04-20T00:31:01.269Z,0
2018-04-20T00:32:01.299Z,0
2018-04-20T00:33:01.071Z,0
2018-04-20T00:34:01.092Z,0
2018-04-20T00:35:01.114Z,0
2018-04-20T00:36:01.137Z,0
2018-04-20T00:37:01.417Z,0
2018-04-20T00:38:01.441Z,0
2018-04-20T00:39:01.471Z,0
2018-04-20T00:40:01.233Z,0
2018-04-20T00:41:01.517Z,0
2018-04-20T00:42:01.586Z,0
2018-04-20T00:43:01.554Z,0
2018-04-20T00:44:01.328Z,0
2018-04-20T00:45:01.615Z,0
2018-04-20T00:46:01.641Z,0
2018-04-20T00:47:01.643Z,0
2018-04-20T00:48:01.413Z,0
2018-04-20T00:49:01.702Z,0
2018-04-20T00:50:01.206Z,0
2018-04-20T00:51:01.743Z,0
2018-04-20T00:52:01.760Z,0
2018-04-20T00:53:01.532Z,0
2018-04-20T00:54:01.299Z,0
2018-04-20T00:55:01.589Z,0
2018-04-20T00:56:01.861Z,4
2018-04-20T00:57:01.672Z,4
2018-04-20T00:58:01.405Z,0
2018-04-20T00:59:01.946Z,0
2018-04-20T01:00:01.953Z,0
2018-04-20T01:01:01.726Z,0
2018-04-20T01:02:02.008Z,0
2018-04-20T01:03:01.766Z,0
2018-04-20T01:04:02.054Z,0
2018-04-20T01:05:02.045Z,0
2018-04-20T01:06:01.807Z,0
2018-04-20T01:07:02.134Z,0
2018-04-20T01:08:01.856Z,0
2018-04-20T01:09:02.132Z,0
2018-04-20T01:10:01.903Z,0
2018-04-20T01:11:01.926Z,0
2018-04-20T01:12:01.995Z,0
2018-04-20T01:13:02.247Z,0
2018-04-20T01:14:02.015Z,0
2018-04-20T01:15:02.039Z,0
2018-04-20T01:16:02.317Z,0
2018-04-20T01:17:02.337Z,0
2018-04-20T01:18:02.140Z,0
2018-04-20T01:19:02.382Z,0
2018-04-20T01:20:02.405Z,0
2018-04-20T01:21:02.184Z,0
2018-04-20T01:22:02.197Z,0
2018-04-20T01:23:02.474Z,0
2018-04-20T01:24:02.257Z,0
2018-04-20T01:25:02.521Z,0
2018-04-20T01:26:02.670Z,0
2018-04-20T01:27:02.359Z,0
2018-04-20T01:28:02.586Z,0
2018-04-20T01:29:02.622Z,0
2018-04-20T01:30:02.634Z,0
2018-04-20T01:31:02.414Z,0
2018-04-20T01:32:02.422Z,0
2018-04-20T01:33:02.465Z,0
2018-04-20T01:34:02.723Z,0
2018-04-20T01:35:02.755Z,0
2018-04-20T01:36:02.772Z,0
2018-04-20T01:37:02.543Z,0
2018-04-20T01:38:02.328Z,0
2018-04-20T01:39:02.330Z,0
2018-04-20T01:40:02.607Z,0
2018-04-20T01:41:02.880Z,0
2018-04-20T01:42:02.906Z,0
2018-04-20T01:43:02.692Z,0
2018-04-20T01:44:02.748Z,0
2018-04-20T01:45:02.971Z,0
2018-04-20T01:46:02.995Z,0
2018-04-20T01:47:03.018Z,0
2018-04-20T01:48:02.782Z,0
2018-04-20T01:49:02.862Z,0
2018-04-20T01:50:02.830Z,0
2018-04-20T01:51:02.850Z,0
2018-04-20T01:52:02.876Z,0
2018-04-20T01:53:03.149Z,0
2018-04-20T01:54:02.917Z,0
2018-04-20T01:55:03.197Z,0
2018-04-20T01:56:02.962Z,0
2018-04-20T01:57:03.242Z,0
2018-04-20T01:58:03.258Z,0
2018-04-20T01:59:03.078Z,0
2018-04-20T02:00:03.059Z,0
2018-04-20T02:01:03.072Z,0
2018-04-20T02:02:03.101Z,0
2018-04-20T02:03:03.121Z,0
2018-04-20T02:04:03.199Z,0
2018-04-20T02:05:03.173Z,0
2018-04-20T02:06:03.462Z,0
2018-04-20T02:07:03.219Z,0
2018-04-20T02:08:03.501Z,0
2018-04-20T02:09:03.520Z,0
2018-04-20T02:10:03.539Z,0
2018-04-20T02:11:03.570Z,0
2018-04-20T02:12:03.328Z,0
2018-04-20T02:13:03.352Z,0
2018-04-20T02:14:03.372Z,0
2018-04-20T02:15:03.148Z,0
2018-04-20T02:16:03.422Z,0
2018-04-20T02:17:03.706Z,0
2018-04-20T02:18:03.720Z,0
2018-04-20T02:19:03.385Z,0
2018-04-20T02:20:03.262Z,0
2018-04-20T02:21:03.536Z,0
2018-04-20T02:22:03.312Z,0
2018-04-20T02:23:03.832Z,0
2018-04-20T02:24:03.616Z,0
2018-04-20T02:25:03.976Z,0
2018-04-20T02:26:03.642Z,0
2018-04-20T02:27:03.666Z,0
2018-04-20T02:28:03.952Z,0
2018-04-20T02:29:03.714Z,0
2018-04-20T02:30:03.507Z,0
2018-04-20T02:31:03.990Z,0
2018-04-20T02:32:04.056Z,0
2018-04-20T02:33:03.804Z,0
2018-04-20T02:34:04.141Z,0
2018-04-20T02:35:04.111Z,0
2018-04-20T02:36:04.143Z,0
2018-04-20T02:37:04.161Z,0
2018-04-20T02:38:03.916Z,0
2018-04-20T02:39:03.680Z,0
2018-04-20T02:40:03.955Z,0
2018-04-20T02:41:04.241Z,0
2018-04-20T02:42:04.002Z,0
2018-04-20T02:43:04.291Z,0
2018-04-20T02:44:04.057Z,0
2018-04-20T02:45:04.082Z,0
2018-04-20T02:46:04.106Z,0
2018-04-20T02:47:03.639Z,0
2018-04-20T02:48:03.891Z,0
2018-04-20T02:49:03.964Z,0
2018-04-20T02:50:04.190Z,0
2018-04-20T02:51:03.952Z,0
2018-04-20T02:52:04.239Z,0
2018-04-20T02:53:04.270Z,0
2018-04-20T02:54:04.024Z,0
2018-04-20T02:55:04.585Z,0
2018-04-20T02:56:04.561Z,0
2018-04-20T02:57:04.588Z,0
2018-04-20T02:58:04.358Z,0
2018-04-20T02:59:04.647Z,0
2018-04-20T03:00:04.394Z,0
2018-04-20T03:01:04.685Z,0
2018-04-20T03:02:04.709Z,0
2018-04-20T03:03:04.481Z,0
2018-04-20T03:04:04.292Z,0
2018-04-20T03:05:04.012Z,0
2018-04-20T03:06:04.289Z,0
2018-04-20T03:07:04.819Z,0
2018-04-20T03:08:04.848Z,0
2018-04-20T03:09:04.614Z,0
2018-04-20T03:10:04.395Z,0
2018-04-20T03:11:04.658Z,0
2018-04-20T03:12:04.684Z,0
2018-04-20T03:13:04.703Z,0
2018-04-20T03:14:04.980Z,0
2018-04-20T03:15:04.743Z,0
2018-04-20T03:16:04.759Z,0
2018-04-20T03:17:05.029Z,0
2018-04-20T03:18:04.811Z,0
2018-04-20T03:19:04.875Z,0
2018-04-20T03:20:04.839Z,0
2018-04-20T03:21:04.618Z,0
2018-04-20T03:22:04.887Z,0
2018-04-20T03:23:04.931Z,0
2018-04-20T03:24:04.432Z,0
2018-04-20T03:25:04.961Z,0
2018-04-20T03:26:05.238Z,0
2018-04-20T03:27:05.259Z,0
2018-04-20T03:28:05.028Z,0
2018-04-20T03:29:04.538Z,0
2018-04-20T03:30:04.821Z,0
2018-04-20T03:31:05.117Z,0
2018-04-20T03:32:05.114Z,4
2018-04-20T03:33:05.396Z,4
2018-04-20T03:34:05.462Z,4
2018-04-20T03:35:05.181Z,4
2018-04-20T03:36:05.206Z,4
2018-04-20T03:37:05.250Z,4
2018-04-20T03:38:04.997Z,4
2018-04-20T03:39:05.603Z,4
2018-04-20T03:40:05.548Z,4
2018-04-20T03:41:05.566Z,4
2018-04-20T03:42:05.082Z,4
2018-04-20T03:43:05.352Z,4
2018-04-20T03:44:05.635Z,4
2018-04-20T03:45:05.666Z,0
2018-04-20T03:46:05.447Z,4
2018-04-20T03:47:05.707Z,4
2018-04-20T03:48:05.712Z,4
2018-04-20T03:49:05.936Z,8
2018-04-20T03:50:05.248Z,4
2018-04-20T03:51:05.809Z,8
2018-04-20T03:52:05.549Z,8
2018-04-20T03:53:05.831Z,8
2018-04-20T03:54:05.851Z,12
2018-04-20T03:55:05.354Z,12
2018-04-20T03:56:05.642Z,12
2018-04-20T03:57:05.406Z,16
2018-04-20T03:58:05.936Z,16
2018-04-20T03:59:05.963Z,20
2018-04-20T04:00:05.750Z,20
2018-04-20T04:01:05.747Z,24
2018-04-20T04:02:06.027Z,32
2018-04-20T04:03:05.796Z,32
2018-04-20T04:04:06.125Z,44
2018-04-20T04:05:05.833Z,48
2018-04-20T04:06:05.622Z,56
2018-04-20T04:07:05.623Z,64
2018-04-20T04:08:05.898Z,76
2018-04-20T04:09:05.946Z,84
2018-04-20T04:10:06.209Z,96
2018-04-20T04:11:05.802Z,112
2018-04-20T04:12:05.998Z,124
2018-04-20T04:13:06.252Z,132
2018-04-20T04:14:06.277Z,148
2018-04-20T04:15:05.786Z,164
2018-04-20T04:16:06.059Z,180
2018-04-20T04:17:06.094Z,196
2018-04-20T04:18:06.258Z,220
2018-04-20T04:19:06.130Z,244
2018-04-20T04:20:06.158Z,272
2018-04-20T04:21:06.175Z,300
2018-04-20T04:22:06.191Z,328
2018-04-20T04:23:06.215Z,360
2018-04-20T04:24:06.234Z,388
2018-04-20T04:25:06.252Z,416
2018-04-20T04:26:05.819Z,444
2018-04-20T04:27:06.328Z,476
2018-04-20T04:28:06.579Z,504
2018-04-20T04:29:06.602Z,536
2018-04-20T04:30:06.617Z,568
2018-04-20T04:31:06.177Z,600
2018-04-20T04:32:06.685Z,632
2018-04-20T04:33:06.423Z,660
2018-04-20T04:34:06.454Z,688
2018-04-20T04:35:06.948Z,716
2018-04-20T04:36:06.782Z,744
2018-04-20T04:37:06.533Z,772
2018-04-20T04:38:06.802Z,804
2018-04-20T04:39:06.316Z,832
2018-04-20T04:40:06.595Z,864
2018-04-20T04:41:06.665Z,896
2018-04-20T04:42:06.634Z,928
2018-04-20T04:43:06.404Z,960
2018-04-20T04:44:06.693Z,988
2018-04-20T04:45:06.958Z,1020
2018-04-20T04:46:06.717Z,1056
2018-04-20T04:47:06.481Z,1088
2018-04-20T04:48:06.549Z,1124
2018-04-20T04:49:07.035Z,1152
2018-04-20T04:50:06.538Z,1172
2018-04-20T04:51:06.560Z,1200
2018-04-20T04:52:06.832Z,1232
2018-04-20T04:53:06.870Z,1280
2018-04-20T04:54:06.882Z,1320
2018-04-20T04:55:06.900Z,1356
2018-04-20T04:56:07.028Z,1396
2018-04-20T04:57:06.958Z,1432
2018-04-20T04:58:07.243Z,1472
2018-04-20T04:59:06.752Z,1512
2018-04-20T05:00:07.025Z,1552
2018-04-20T05:01:07.299Z,1592
2018-04-20T05:02:07.073Z,1628
2018-04-20T05:03:07.087Z,1672
2018-04-20T05:04:07.372Z,1708
2018-04-20T05:05:07.141Z,1740
2018-04-20T05:06:07.411Z,1780
2018-04-20T05:07:07.424Z,1820
2018-04-20T05:08:06.939Z,1856
2018-04-20T05:09:07.537Z,1896
2018-04-20T05:10:07.244Z,1944
2018-04-20T05:11:07.323Z,1996
2018-04-20T05:12:07.534Z,2044
2018-04-20T05:13:07.317Z,2076
2018-04-20T05:14:07.588Z,2112
2018-04-20T05:15:07.609Z,2148
2018-04-20T05:16:07.629Z,2184
2018-04-20T05:17:07.648Z,2224
2018-04-20T05:18:07.692Z,2272
2018-04-20T05:19:07.698Z,2316
2018-04-20T05:20:07.459Z,2356
2018-04-20T05:21:07.487Z,2396
2018-04-20T05:22:07.507Z,2432
2018-04-20T05:23:07.529Z,2468
2018-04-20T05:24:07.537Z,2508
2018-04-20T05:25:07.055Z,2544
2018-04-20T05:26:07.892Z,2576
2018-04-20T05:27:07.865Z,2632
2018-04-20T05:28:07.624Z,2660
2018-04-20T05:29:07.415Z,2696
2018-04-20T05:30:07.451Z,2720
2018-04-20T05:31:07.971Z,2748
2018-04-20T05:32:07.984Z,2816
2018-04-20T05:33:08.011Z,2912
2018-04-20T05:34:07.769Z,2976
2018-04-20T05:35:07.799Z,3028
2018-04-20T05:36:07.822Z,3076
2018-04-20T05:37:08.097Z,3136
2018-04-20T05:38:08.117Z,3192
2018-04-20T05:39:08.134Z,3240
2018-04-20T05:40:07.921Z,3288
2018-04-20T05:41:08.570Z,3340
2018-04-20T05:42:07.430Z,3388
2018-04-20T05:43:08.226Z,3440
2018-04-20T05:44:07.980Z,3480
2018-04-20T05:45:08.264Z,3532
2018-04-20T05:46:07.790Z,3584
2018-04-20T05:47:08.064Z,3628
2018-04-20T05:48:07.831Z,3676
2018-04-20T05:49:07.599Z,3724
2018-04-20T05:50:08.132Z,3764
2018-04-20T05:51:07.874Z,3804
2018-04-20T05:52:08.400Z,3828
2018-04-20T05:53:08.416Z,3864
2018-04-20T05:54:08.194Z,3892
2018-04-20T05:55:08.466Z,3912
2018-04-20T05:56:08.286Z,3996
2018-04-20T05:57:08.008Z,4028
2018-04-20T05:58:08.529Z,4060
2018-04-20T05:59:08.548Z,4084
2018-04-20T06:00:08.353Z,4116
2018-04-20T06:01:08.766Z,4160
2018-04-20T06:02:08.428Z,4184
2018-04-20T06:03:08.421Z,4200
2018-04-20T06:04:08.187Z,4236
2018-04-20T06:05:08.466Z,4288
2018-04-20T06:06:07.976Z,4336
2018-04-20T06:07:08.378Z,4364
2018-04-20T06:08:08.531Z,4396
2018-04-20T06:09:08.561Z,4420
2018-04-20T06:10:08.836Z,4408
2018-04-20T06:11:08.345Z,4432
2018-04-20T06:12:09.039Z,4496
2018-04-20T06:13:08.900Z,4580
2018-04-20T06:14:08.681Z,4600
2018-04-20T06:15:08.958Z,4700
2018-04-20T06:16:08.470Z,4700
2018-04-20T06:17:08.996Z,4760
2018-04-20T06:18:08.764Z,4904
2018-04-20T06:19:09.025Z,4936
2018-04-20T06:20:09.062Z,5012
2018-04-20T06:21:09.076Z,5076
2018-04-20T06:22:08.845Z,5124
2018-04-20T06:23:09.110Z,5156
2018-04-20T06:24:08.886Z,5168
2018-04-20T06:25:08.753Z,5192
2018-04-20T06:26:08.719Z,5216
2018-04-20T06:27:09.352Z,5240
2018-04-20T06:28:08.994Z,5276
2018-04-20T06:29:09.278Z,5308
2018-04-20T06:30:09.037Z,5356
2018-04-20T06:31:08.808Z,5408
2018-04-20T06:32:10.540Z,5436
2018-04-20T06:33:09.361Z,5440
2018-04-20T06:34:09.137Z,5460
2018-04-20T06:35:09.417Z,5480
2018-04-20T06:36:09.433Z,5508
2018-04-20T06:37:09.205Z,5280
2018-04-20T06:38:09.485Z,5288
2018-04-20T06:39:09.245Z,5336
2018-04-20T06:40:09.271Z,5376
2018-04-20T06:41:09.302Z,5380
2018-04-20T06:42:09.368Z,5404
2018-04-20T06:43:09.604Z,5312
2018-04-20T06:44:09.114Z,5308
2018-04-20T06:45:09.660Z,5424
2018-04-20T06:46:09.417Z,5424
2018-04-20T06:47:09.436Z,5440
2018-04-20T06:48:09.469Z,5504
2018-04-20T06:49:09.798Z,5580
2018-04-20T06:50:09.504Z,5596
2018-04-20T06:51:09.802Z,5548
2018-04-20T06:52:09.859Z,5528
2018-04-20T06:53:09.583Z,5448
2018-04-20T06:54:09.606Z,5740
2018-04-20T06:55:09.631Z,5620
2018-04-20T06:56:09.910Z,5728
2018-04-20T06:57:09.716Z,5856
2018-04-20T06:58:09.705Z,5928
2018-04-20T06:59:09.473Z,5996
2018-04-20T07:00:10.006Z,6020
2018-04-20T07:01:10.030Z,6056
2018-04-20T07:02:09.805Z,6076
2018-04-20T07:03:09.819Z,6100
2018-04-20T07:04:10.108Z,6132
2018-04-20T07:05:10.103Z,6144
2018-04-20T07:06:09.880Z,6172
2018-04-20T07:07:09.696Z,6188
2018-04-20T07:08:09.931Z,6204
2018-04-20T07:09:09.987Z,5980
2018-04-20T07:10:09.722Z,6124
2018-04-20T07:11:10.013Z,6220
2018-04-20T07:12:09.562Z,6044
2018-04-20T07:13:10.057Z,6140
2018-04-20T07:14:09.844Z,5960
2018-04-20T07:15:10.106Z,6304
2018-04-20T07:16:09.877Z,6024
2018-04-20T07:17:10.447Z,6380
2018-04-20T07:18:10.438Z,6240
2018-04-20T07:19:10.209Z,5952
2018-04-20T07:20:09.975Z,6376
2018-04-20T07:21:09.999Z,6396
2018-04-20T07:22:10.076Z,6112
2018-04-20T07:23:10.299Z,5952
2018-04-20T07:24:10.326Z,6140
2018-04-20T07:25:10.355Z,6220
2018-04-20T07:26:10.126Z,6304
2018-04-20T07:27:10.400Z,6464
2018-04-20T07:28:10.174Z,6464
2018-04-20T07:29:10.450Z,6020
2018-04-20T07:30:10.341Z,6328
2018-04-20T07:31:10.503Z,6656
2018-04-20T07:32:10.551Z,6556
2018-04-20T07:33:10.673Z,6560
2018-04-20T07:34:10.576Z,6648
2018-04-20T07:35:10.866Z,6784
2018-04-20T07:36:10.881Z,6668
2018-04-20T07:37:10.697Z,6632
2018-04-20T07:38:10.414Z,6780
2018-04-20T07:39:10.705Z,6812
2018-04-20T07:40:10.457Z,6696
2018-04-20T07:41:10.964Z,6672
2018-04-20T07:42:10.545Z,6736
2018-04-20T07:43:11.033Z,6800
2018-04-20T07:44:11.045Z,6840
2018-04-20T07:45:11.109Z,6876
2018-04-20T07:46:10.844Z,6916
2018-04-20T07:47:10.619Z,6928
2018-04-20T07:48:10.893Z,6952
2018-04-20T07:49:11.171Z,6964
2018-04-20T07:50:10.940Z,6976
2018-04-20T07:51:11.217Z,7000
2018-04-20T07:52:10.992Z,7000
2018-04-20T07:53:11.270Z,7016
2018-04-20T07:54:11.039Z,7040
2018-04-20T07:55:10.817Z,7048
2018-04-20T07:56:11.090Z,7024
2018-04-20T07:57:11.417Z,6964
2018-04-20T07:58:10.905Z,7060
2018-04-20T07:59:11.171Z,7080
2018-04-20T08:00:11.206Z,6944
2018-04-20T08:01:10.977Z,6916
2018-04-20T08:02:11.511Z,6736
2018-04-20T08:03:11.020Z,7100
2018-04-20T08:04:11.304Z,7152
2018-04-20T08:05:11.076Z,7176
2018-04-20T08:06:10.855Z,7168
2018-04-20T08:07:11.388Z,7208
2018-04-20T08:08:11.415Z,7252
2018-04-20T08:09:11.442Z,7256
2018-04-20T08:10:11.470Z,7296
2018-04-20T08:11:11.787Z,7328
2018-04-20T08:12:11.828Z,7352
2018-04-20T08:13:11.288Z,7376
2018-04-20T08:14:11.572Z,7408
2018-04-20T08:15:11.859Z,7440
2018-04-20T08:16:11.627Z,7448
2018-04-20T08:17:11.654Z,7476
2018-04-20T08:18:11.686Z,7504
2018-04-20T08:19:11.955Z,7512
2018-04-20T08:20:12.143Z,7540
2018-04-20T08:21:11.998Z,7500
2018-04-20T08:22:12.027Z,7520
2018-04-20T08:23:12.057Z,7528
2018-04-20T08:24:12.081Z,7640
2018-04-20T08:25:11.862Z,7692
2018-04-20T08:26:12.132Z,7720
2018-04-20T08:27:12.211Z,7740
2018-04-20T08:28:11.934Z,7816
2018-04-20T08:29:11.960Z,7844
2018-04-20T08:30:11.985Z,7828
2018-04-20T08:31:12.265Z,7808
2018-04-20T08:32:12.136Z,7836
2018-04-20T08:33:12.048Z,7872
2018-04-20T08:34:12.431Z,7680
2018-04-20T08:35:12.110Z,7892
2018-04-20T08:36:12.138Z,7988
2018-04-20T08:37:12.166Z,7940
2018-04-20T08:38:12.458Z,7984
2018-04-20T08:39:12.478Z,7900
2018-04-20T08:40:12.585Z,7912
2018-04-20T08:41:12.533Z,7848
2018-04-20T08:42:12.436Z,8032
2018-04-20T08:43:12.325Z,8120
2018-04-20T08:44:12.097Z,8200
2018-04-20T08:45:12.629Z,8248
2018-04-20T08:46:11.898Z,8116
2018-04-20T08:47:12.686Z,8060
2018-04-20T08:48:12.449Z,7992
2018-04-20T08:49:12.482Z,8144
2018-04-20T08:50:12.758Z,8256
2018-04-20T08:51:12.546Z,8368
2018-04-20T08:52:12.825Z,8344
2018-04-20T08:53:12.839Z,8408
2018-04-20T08:54:12.871Z,8428
2018-04-20T08:55:12.892Z,8432
2018-04-20T08:56:12.669Z,8424
2018-04-20T08:57:12.852Z,8456
2018-04-20T08:58:12.976Z,8476
2018-04-20T08:59:12.535Z,8472
2018-04-20T09:00:12.776Z,8464
2018-04-20T09:01:13.070Z,8496
2018-04-20T09:02:12.833Z,8532
2018-04-20T09:03:12.876Z,8256
2018-04-20T09:04:13.141Z,8548
2018-04-20T09:05:12.657Z,8456
2018-04-20T09:06:13.193Z,8480
2018-04-20T09:07:12.962Z,8460
2018-04-20T09:08:13.000Z,8488
2018-04-20T09:09:13.015Z,8512
2018-04-20T09:10:13.037Z,8576
2018-04-20T09:11:13.336Z,8616
2018-04-20T09:12:13.337Z,8636
2018-04-20T09:13:13.418Z,8672
2018-04-20T09:14:13.394Z,8664
2018-04-20T09:15:13.421Z,8700
2018-04-20T09:16:13.443Z,8744
2018-04-20T09:17:13.487Z,8740
2018-04-20T09:18:13.251Z,8764
2018-04-20T09:19:13.022Z,9280
2018-04-20T09:20:13.555Z,10132
2018-04-20T09:21:13.335Z,10480
2018-04-20T09:22:13.110Z,10628
2018-04-20T09:23:13.635Z,10744
2018-04-20T09:24:13.423Z,10860
2018-04-20T09:25:13.688Z,10992
2018-04-20T09:26:13.479Z,11072
2018-04-20T09:27:13.751Z,11212
2018-04-20T09:28:13.832Z,11176
2018-04-20T09:29:13.551Z,11288
2018-04-20T09:30:13.840Z,11388
2018-04-20T09:31:13.627Z,11464
2018-04-20T09:32:13.646Z,11544
2018-04-20T09:33:13.927Z,11704
2018-04-20T09:34:13.969Z,11800
2018-04-20T09:35:13.748Z,11860
2018-04-20T09:36:13.765Z,11944
2018-04-20T09:37:13.793Z,12128
2018-04-20T09:38:14.088Z,12184
2018-04-20T09:39:13.851Z,12368
2018-04-20T09:40:13.895Z,12452
2018-04-20T09:41:14.176Z,12536
2018-04-20T09:42:14.200Z,12688
2018-04-20T09:43:14.031Z,12872
2018-04-20T09:44:14.014Z,13096
2018-04-20T09:45:14.295Z,13344
2018-04-20T09:46:14.236Z,13380
2018-04-20T09:47:13.593Z,13552
2018-04-20T09:48:14.132Z,13856
2018-04-20T09:49:14.171Z,14016
2018-04-20T09:50:14.203Z,14208
2018-04-20T09:51:14.488Z,14304
2018-04-20T09:52:14.272Z,14656
2018-04-20T09:53:14.313Z,15136
2018-04-20T09:54:14.096Z,15424
2018-04-20T09:55:14.364Z,13964
2018-04-20T09:56:14.647Z,15616
2018-04-20T09:57:14.423Z,15968
2018-04-20T09:58:14.246Z,16384
2018-04-20T09:59:14.230Z,16320
2018-04-20T10:00:14.519Z,16800
2018-04-20T10:01:14.546Z,17216
2018-04-20T10:02:14.828Z,17376
2018-04-20T10:03:14.872Z,16480
2018-04-20T10:04:14.894Z,17024
2018-04-20T10:05:14.677Z,17600
2018-04-20T10:06:14.978Z,18048
2018-04-20T10:07:14.741Z,18048
2018-04-20T10:08:15.039Z,17888
2018-04-20T10:09:14.807Z,17888
2018-04-20T10:10:14.345Z,17728
2018-04-20T10:11:14.875Z,17472
2018-04-20T10:12:15.166Z,17408
2018-04-20T10:13:14.998Z,17792
2018-04-20T10:14:14.737Z,18208
2018-04-20T10:15:15.028Z,18464
2018-04-20T10:16:15.066Z,18752
2018-04-20T10:17:15.091Z,19424
2018-04-20T10:18:15.120Z,18560
2018-04-20T10:19:15.597Z,20544
2018-04-20T10:20:15.192Z,20896
2018-04-20T10:21:15.480Z,21216
2018-04-20T10:22:15.258Z,21664
2018-04-20T10:23:15.544Z,22432
2018-04-20T10:24:15.327Z,22784
2018-04-20T10:25:15.619Z,20576
2018-04-20T10:26:15.402Z,20960
2018-04-20T10:27:15.689Z,22016
2018-04-20T10:28:15.273Z,22496
2018-04-20T10:29:15.541Z,24000
2018-04-20T10:30:15.799Z,25120
2018-04-20T10:31:15.832Z,25984
2018-04-20T10:32:15.558Z,24800
2018-04-20T10:33:15.642Z,24064
2018-04-20T10:34:15.677Z,26016
2018-04-20T10:35:15.970Z,26208
2018-04-20T10:36:15.492Z,25600
2018-04-20T10:37:15.524Z,26272
2018-04-20T10:38:16.120Z,25792
2018-04-20T10:39:15.344Z,26624
2018-04-20T10:40:15.879Z,27648
2018-04-20T10:41:15.924Z,28224
2018-04-20T10:42:15.958Z,27872
2018-04-20T10:43:16.252Z,28256
2018-04-20T10:44:16.278Z,27872
2018-04-20T10:45:16.061Z,25664
2018-04-20T10:46:16.100Z,26656
2018-04-20T10:47:16.163Z,27680
2018-04-20T10:48:16.168Z,27680
2018-04-20T10:49:16.204Z,29152
2018-04-20T10:50:16.241Z,17440
2018-04-20T10:51:16.285Z,28768
2018-04-20T10:52:16.566Z,26432
2018-04-20T10:53:16.389Z,31584
2018-04-20T10:54:16.384Z,29024
2018-04-20T10:55:16.732Z,24288
2018-04-20T10:56:16.707Z,23392
2018-04-20T10:57:16.500Z,24384
2018-04-20T10:58:16.531Z,23520
2018-04-20T10:59:16.561Z,23456
2018-04-20T11:00:16.598Z,23648
2018-04-20T11:01:16.908Z,23776
2018-04-20T11:02:16.669Z,24672
2018-04-20T11:03:16.956Z,25216
2018-04-20T11:04:16.750Z,24864
2018-04-20T11:05:16.792Z,24032
2018-04-20T11:06:17.069Z,23040
2018-04-20T11:07:16.838Z,24000
2018-04-20T11:08:16.926Z,24832
2018-04-20T11:09:17.166Z,26080
2018-04-20T11:10:16.949Z,27232
2018-04-20T11:11:17.252Z,28576
2018-04-20T11:12:17.020Z,31104
2018-04-20T11:13:17.054Z,34464
2018-04-20T11:14:17.101Z,32672
2018-04-20T11:15:17.403Z,31520
2018-04-20T11:16:17.164Z,32256
2018-04-20T11:17:16.961Z,35968
2018-04-20T11:18:17.239Z,38848
2018-04-20T11:19:17.572Z,39296
2018-04-20T11:20:17.311Z,38656
2018-04-20T11:21:17.093Z,39680
2018-04-20T11:22:17.644Z,41184
2018-04-20T11:23:17.672Z,40320
2018-04-20T11:24:17.761Z,41888
2018-04-20T11:25:17.752Z,45600
2018-04-20T11:26:17.812Z,44480
2018-04-20T11:27:17.610Z,40704
2018-04-20T11:28:17.368Z,40768
2018-04-20T11:29:17.921Z,41568
2018-04-20T11:30:17.445Z,42688
2018-04-20T11:31:17.748Z,44928
2018-04-20T11:32:18.026Z,46176
2018-04-20T11:33:17.818Z,43872
2018-04-20T11:34:18.082Z,41920
2018-04-20T11:35:17.870Z,45152
2018-04-20T11:36:17.656Z,47936
2018-04-20T11:37:18.197Z,46304
2018-04-20T11:38:18.239Z,38496
2018-04-20T11:39:18.017Z,43616
2018-04-20T11:40:18.122Z,48256
2018-04-20T11:41:18.364Z,51808
2018-04-20T11:42:18.425Z,50336
2018-04-20T11:43:18.187Z,50208
2018-04-20T11:44:18.226Z,46496
2018-04-20T11:45:18.008Z,50368
2018-04-20T11:46:18.295Z,51232
2018-04-20T11:47:18.660Z,48000
2018-04-20T11:48:18.379Z,46752
2018-04-20T11:49:18.670Z,46752
2018-04-20T11:50:18.556Z,46560
2018-04-20T11:51:18.495Z,47808
2018-04-20T11:52:18.789Z,48064
2018-04-20T11:53:18.571Z,50208
2018-04-20T11:54:18.605Z,54976
2018-04-20T11:55:18.698Z,54560
2018-04-20T11:56:18.433Z,51200
2018-04-20T11:57:18.723Z,53536
2018-04-20T11:58:19.008Z,56768
2018-04-20T11:59:18.806Z,57664
2018-04-20T12:00:18.840Z,53088
2018-04-20T12:01:19.135Z,52800
2018-04-20T12:02:19.051Z,58464
2018-04-20T12:03:18.749Z,60832
2018-04-20T12:04:19.243Z,58880
2018-04-20T12:05:19.283Z,54304
2018-04-20T12:06:19.344Z,55840
2018-04-20T12:07:19.157Z,57600
2018-04-20T12:08:19.411Z,59712
2018-04-20T12:09:19.452Z,59584
2018-04-20T12:10:19.523Z,55392
2018-04-20T12:11:19.525Z,51232
2018-04-20T12:12:19.545Z,46848
2018-04-20T12:13:19.336Z,45664
2018-04-20T12:14:19.625Z,46816
2018-04-20T12:15:19.209Z,46272
2018-04-20T12:16:19.252Z,46624
2018-04-20T12:17:19.493Z,49088
2018-04-20T12:18:19.787Z,51360
2018-04-20T12:19:19.819Z,51104
2018-04-20T12:20:19.856Z,46496
2018-04-20T12:21:19.696Z,44544
2018-04-20T12:22:19.675Z,46528
2018-04-20T12:23:19.967Z,49408
2018-04-20T12:24:20.005Z,53248
2018-04-20T12:25:20.046Z,58656
2018-04-20T12:26:19.836Z,62368
2018-04-20T12:27:20.428Z,64096
2018-04-20T12:28:20.173Z,66400
2018-04-20T12:29:19.955Z,66816
2018-04-20T12:30:20.047Z,65536
2018-04-20T12:31:20.028Z,64736
2018-04-20T12:32:20.332Z,61984
2018-04-20T12:33:20.364Z,61088
2018-04-20T12:34:20.159Z,62176
2018-04-20T12:35:20.444Z,66368
2018-04-20T12:36:20.246Z,67968
2018-04-20T12:37:20.278Z,66368
2018-04-20T12:38:20.321Z,64992
2018-04-20T12:39:20.607Z,67008
2018-04-20T12:40:20.395Z,69152
2018-04-20T12:41:20.616Z,70656
2018-04-20T12:42:20.732Z,69088
2018-04-20T12:43:20.519Z,66176
2018-04-20T12:44:20.731Z,64576
2018-04-20T12:45:20.687Z,65504
2018-04-20T12:46:20.897Z,64832
2018-04-20T12:47:20.681Z,68640
2018-04-20T12:48:20.724Z,70944
2018-04-20T12:49:20.508Z,70368
2018-04-20T12:50:21.055Z,71648
2018-04-20T12:51:21.004Z,70048
2018-04-20T12:52:20.882Z,66944
2018-04-20T12:53:21.182Z,66592
2018-04-20T12:54:20.968Z,69152
2018-04-20T12:55:21.272Z,69664
2018-04-20T12:56:21.058Z,71488
2018-04-20T12:57:21.412Z,73920
2018-04-20T12:58:21.395Z,73824
2018-04-20T12:59:21.425Z,73216
2018-04-20T13:00:21.264Z,71808
2018-04-20T13:01:21.506Z,71008
2018-04-20T13:02:21.544Z,73440
2018-04-20T13:03:21.070Z,75008
2018-04-20T13:04:21.621Z,74944
2018-04-20T13:05:21.656Z,72768
2018-04-20T13:06:21.709Z,70656
2018-04-20T13:07:21.490Z,72000
2018-04-20T13:08:21.783Z,74880
2018-04-20T13:09:21.834Z,73664
2018-04-20T13:10:21.364Z,69088
2018-04-20T13:11:21.680Z,64544
2018-04-20T13:12:21.699Z,67104
2018-04-20T13:13:21.490Z,70560
2018-04-20T13:14:21.779Z,71904
2018-04-20T13:15:22.127Z,67072
2018-04-20T13:16:21.886Z,67712
2018-04-20T13:17:21.649Z,57984
2018-04-20T13:18:22.293Z,63296
2018-04-20T13:19:22.245Z,60288
2018-04-20T13:20:22.034Z,63520
2018-04-20T13:21:22.334Z,66560
2018-04-20T13:22:22.373Z,71552
2018-04-20T13:23:22.201Z,74752
2018-04-20T13:24:22.217Z,73504
2018-04-20T13:25:22.239Z,68128
2018-04-20T13:26:22.285Z,69184
2018-04-20T13:27:22.326Z,73248
2018-04-20T13:28:22.610Z,70496
2018-04-20T13:29:22.663Z,71552
2018-04-20T13:30:22.744Z,70208
2018-04-20T13:31:22.277Z,67872
2018-04-20T13:32:22.783Z,66272
2018-04-20T13:33:22.837Z,65632
2018-04-20T13:34:22.870Z,65888
2018-04-20T13:35:22.907Z,63232